Time;durP1;ratioP1;P1;durP2;ratioP2;P2;SDS_P1;SDS_P2;PMS_P1;PMS_P2;Temp;Humidity;BMP_temperature;BMP_pressure;BME280_temperature;BME280_humidity;BME280_pressure;Samples;Min_cycle;Max_cycle;Signal;HPM_P1;HPM_P2
2023/04/11 00:01:47;;;;;;;5.10;2.72;;;6.70;99.90;;;;;;5051646;28;20462;-52
2023/04/11 00:04:16;;;;;;;5.35;2.70;;;6.70;99.90;;;;;;5051503;28;20139;-51
2023/04/11 00:06:42;;;;;;;5.53;2.55;;;6.70;99.90;;;;;;5051660;28;20513;-51
2023/04/11 00:09:12;;;;;;;4.38;2.70;;;6.70;99.90;;;;;;5051057;28;20048;-53
2023/04/11 00:11:39;;;;;;;6.03;3.42;;;6.60;99.90;;;;;;5051588;28;20075;-51
2023/04/11 00:14:07;;;;;;;4.65;3.25;;;6.60;99.90;;;;;;5050864;28;20068;-51
2023/04/11 00:16:34;;;;;;;7.72;4.30;;;6.60;99.90;;;;;;5051670;28;20048;-51
2023/04/11 00:19:01;;;;;;;5.75;3.25;;;6.70;99.90;;;;;;5049976;28;20045;-51
2023/04/11 00:21:28;;;;;;;6.28;3.60;;;6.70;99.90;;;;;;5051599;28;20120;-51
2023/04/11 00:23:54;;;;;;;6.47;4.00;;;6.70;99.90;;;;;;5051993;28;20041;-53
2023/04/11 00:26:21;;;;;;;7.40;4.00;;;6.70;99.90;;;;;;5051832;28;20076;-51
2023/04/11 00:28:48;;;;;;;7.10;2.95;;;6.80;99.90;;;;;;5049889;28;20035;-51
2023/04/11 00:31:15;;;;;;;3.33;2.22;;;6.70;99.90;;;;;;5046935;28;20522;-51
2023/04/11 00:33:42;;;;;;;4.35;2.75;;;6.60;99.90;;;;;;5031260;28;20045;-51
2023/04/11 00:36:09;;;;;;;6.00;3.67;;;6.40;99.90;;;;;;5030754;28;20045;-51
2023/04/11 00:38:37;;;;;;;;;;;6.40;99.90;;;;;;5014886;28;20650;-53
2023/04/11 00:41:03;;;;;;;6.88;3.20;;;6.50;99.90;;;;;;5051257;28;20420;-51
2023/04/11 00:43:30;;;;;;;6.15;2.63;;;6.40;99.90;;;;;;5051250;28;20051;-51
2023/04/11 00:45:57;;;;;;;5.03;2.75;;;6.30;99.90;;;;;;5033763;28;20398;-51
2023/04/11 00:48:27;;;;;;;4.38;2.50;;;6.10;99.90;;;;;;5030252;28;20379;-52
2023/04/11 00:50:54;;;;;;;5.80;2.47;;;6.00;99.90;;;;;;5013672;28;20049;-51
2023/04/11 00:53:22;;;;;;;4.47;2.58;;;5.90;99.90;;;;;;5040833;28;20041;-52
2023/04/11 00:55:49;;;;;;;4.68;2.40;;;5.90;99.90;;;;;;5021006;28;20041;-50
2023/04/11 00:58:17;;;;;;;4.72;2.75;;;5.90;99.90;;;;;;5031799;28;20045;-51
2023/04/11 01:00:48;;;;;;;4.53;2.50;;;5.90;99.90;;;;;;5031415;28;20064;-53
2023/04/11 01:03:17;;;;;;;5.03;2.38;;;6.00;99.90;;;;;;5024129;28;20122;-50
2023/04/11 01:05:45;;;;;;;4.07;2.50;;;6.00;99.90;;;;;;5041390;28;20501;-50
2023/04/11 01:08:13;;;;;;;4.53;2.63;;;6.10;99.90;;;;;;5013296;28;20521;-50
2023/04/11 01:10:41;;;;;;;4.97;2.60;;;6.10;99.90;;;;;;5030760;28;20491;-53
2023/04/11 01:13:08;;;;;;;6.80;3.35;;;6.10;99.90;;;;;;5013215;28;20521;-52
2023/04/11 01:15:35;;;;;;;4.13;2.05;;;6.10;99.90;;;;;;5037066;28;20473;-52
2023/04/11 01:18:04;;;;;;;4.72;2.53;;;6.10;99.90;;;;;;5040573;28;20041;-51
2023/04/11 01:20:32;;;;;;;7.05;2.63;;;6.10;99.90;;;;;;5025689;28;20057;-51
2023/04/11 01:23:01;;;;;;;6.00;2.60;;;6.10;99.90;;;;;;5039804;28;20397;-52
2023/04/11 01:25:28;;;;;;;6.15;2.63;;;6.10;99.90;;;;;;5050063;28;20094;-53
2023/04/11 01:27:55;;;;;;;5.35;2.70;;;6.00;99.90;;;;;;5048101;28;20029;-50
2023/04/11 01:30:22;;;;;;;;;;;6.00;99.90;;;;;;5013624;28;20049;-52
2023/04/11 01:32:49;;;;;;;5.22;2.95;;;6.00;99.90;;;;;;5030746;28;19921;-51
2023/04/11 01:35:17;;;;;;;5.30;2.42;;;5.30;99.90;;;;;;5030710;28;20053;-52
2023/04/11 01:37:44;;;;;;;8.70;2.60;;;6.00;99.90;;;;;;5020030;28;20049;-52
2023/04/11 01:40:16;;;;;;;5.57;3.15;;;6.10;99.90;;;;;;5031581;28;20457;-54
2023/04/11 01:42:44;;;;;;;5.35;2.83;;;6.10;99.90;;;;;;5028064;28;20104;-53
2023/04/11 01:45:11;;;;;;;4.75;3.10;;;6.10;99.90;;;;;;5032835;28;20041;-53
2023/04/11 01:47:39;;;;;;;5.97;3.20;;;6.10;99.90;;;;;;5033873;28;20038;-52
2023/04/11 01:50:06;;;;;;;5.72;2.78;;;6.10;99.90;;;;;;5015745;28;20057;-53
2023/04/11 01:52:33;;;;;;;8.55;2.88;;;6.10;99.90;;;;;;5027630;28;20053;-51
2023/04/11 01:55:00;;;;;;;6.07;2.92;;;6.00;99.90;;;;;;5029091;28;20046;-53
2023/04/11 01:57:26;;;;;;;8.70;2.72;;;5.90;99.90;;;;;;5030155;28;20050;-52
2023/04/11 01:59:53;;;;;;;5.45;2.88;;;5.90;99.90;;;;;;5029424;28;20516;-55
2023/04/11 02:02:20;;;;;;;8.48;3.20;;;5.80;99.90;;;;;;5032833;28;20713;-52
2023/04/11 02:04:47;;;;;;;4.90;2.63;;;5.80;99.90;;;;;;5029369;28;20049;-53
2023/04/11 02:07:13;;;;;;;6.57;3.45;;;5.80;99.90;;;;;;5031002;28;20042;-52
2023/04/11 02:09:40;;;;;;;6.95;3.38;;;5.80;99.90;;;;;;5035537;28;20056;-52
2023/04/11 02:12:07;;;;;;;7.65;3.30;;;5.90;99.90;;;;;;5049084;28;20075;-52
2023/04/11 02:14:59;;;;;;;5.38;3.08;;;5.90;99.90;;;;;;5080138;22;20044;-55
2023/04/11 02:17:29;;;;;;;5.35;2.85;;;5.90;99.90;;;;;;5071751;28;20044;-51
2023/04/11 02:19:56;;;;;;;5.25;2.60;;;5.80;99.90;;;;;;5056178;28;20070;-51
2023/04/11 02:22:23;;;;;;;4.10;2.55;;;5.80;99.90;;;;;;5064088;28;20459;-48
2023/04/11 02:24:50;;;;;;;3.22;2.30;;;5.90;99.90;;;;;;5075790;28;20046;-49
2023/04/11 02:27:17;;;;;;;5.20;2.22;;;6.00;99.90;;;;;;5074656;28;20260;-50
2023/04/11 02:29:44;;;;;;;5.07;2.80;;;6.00;99.90;;;;;;5075463;28;20052;-51
2023/04/11 02:32:10;;;;;;;6.85;3.10;;;6.00;99.90;;;;;;5082771;28;20036;-51
2023/04/11 02:34:37;;;;;;;5.22;2.80;;;5.90;99.90;;;;;;5088577;28;20048;-50
2023/04/11 02:37:04;;;;;;;5.40;2.78;;;5.90;99.90;;;;;;5093984;28;20485;-50
2023/04/11 02:39:32;;;;;;;5.13;2.78;;;6.00;99.90;;;;;;5081713;28;20421;-49
2023/04/11 02:41:59;;;;;;;6.72;3.53;;;6.00;99.90;;;;;;5066427;28;20040;-51
2023/04/11 02:44:28;;;;;;;5.85;2.70;;;6.10;99.90;;;;;;5073851;28;20450;-50
2023/04/11 02:46:56;;;;;;;9.18;3.13;;;6.10;99.90;;;;;;5075168;28;20127;-49
2023/04/11 02:49:24;;;;;;;6.20;3.53;;;6.20;99.90;;;;;;5075294;28;20097;-51
2023/04/11 02:51:51;;;;;;;6.55;3.40;;;6.20;99.90;;;;;;5066874;28;20090;-54
2023/04/11 02:54:18;;;;;;;6.00;3.30;;;6.30;99.90;;;;;;5076242;28;20071;-51
2023/04/11 02:56:45;;;;;;;4.50;3.05;;;6.30;99.90;;;;;;5092841;28;20493;-52
2023/04/11 02:59:12;;;;;;;6.90;3.10;;;6.40;99.90;;;;;;5074755;28;20122;-54
2023/04/11 03:01:40;;;;;;;6.05;3.17;;;6.50;99.90;;;;;;5076377;28;20500;-51
2023/04/11 03:04:07;;;;;;;9.88;3.05;;;6.60;99.90;;;;;;5085053;28;20123;-56
2023/04/11 03:06:43;;;;;;;5.32;3.35;;;6.60;99.90;;;;;;5079912;28;20575;-50
2023/04/11 03:09:10;;;;;;;5.18;3.08;;;6.50;99.90;;;;;;5055597;28;20049;-51
2023/04/11 03:11:37;;;;;;;6.30;4.10;;;6.40;99.90;;;;;;5071997;28;20468;-55
2023/04/11 03:14:04;;;;;;;8.15;3.53;;;6.30;99.90;;;;;;5064622;28;20040;-52
2023/04/11 03:16:31;;;;;;;4.63;3.17;;;6.40;99.90;;;;;;5066953;28;20040;-51
2023/04/11 03:18:58;;;;;;;8.60;3.78;;;6.40;99.90;;;;;;5074887;28;20048;-52
2023/04/11 03:21:26;;;;;;;10.30;3.47;;;6.50;99.90;;;;;;5074237;28;20040;-51
2023/04/11 03:23:53;;;;;;;5.43;3.30;;;6.50;99.90;;;;;;5066069;28;20040;-52
2023/04/11 03:26:20;;;;;;;5.35;2.92;;;6.60;99.90;;;;;;5074780;28;20048;-52
2023/04/11 03:28:47;;;;;;;5.10;3.20;;;6.60;99.90;;;;;;5076081;28;20497;-50
2023/04/11 03:31:17;;;;;;;7.05;3.30;;;6.60;99.90;;;;;;5074394;28;20046;-52
2023/04/11 03:33:45;;;;;;;5.47;3.05;;;6.70;99.90;;;;;;5074514;28;20044;-52
2023/04/11 03:36:12;;;;;;;7.13;3.72;;;6.60;99.90;;;;;;5073590;28;20110;-55
2023/04/11 03:38:40;;;;;;;6.05;3.67;;;6.70;99.90;;;;;;5059268;28;20076;-52
2023/04/11 03:41:07;;;;;;;5.22;2.58;;;6.60;99.90;;;;;;5074376;28;20051;-52
2023/04/11 03:43:33;;;;;;;5.35;2.88;;;6.70;99.90;;;;;;5092993;28;20066;-51
2023/04/11 03:46:01;;;;;;;5.50;3.25;;;6.70;99.90;;;;;;5068795;28;20036;-49
2023/04/11 03:48:37;;;;;;;6.03;3.53;;;6.70;99.90;;;;;;5068419;28;20040;-51
2023/04/11 03:51:07;;;;;;;8.02;3.50;;;6.70;99.90;;;;;;5074094;28;20734;-51
2023/04/11 03:53:40;;;;;;;6.50;3.80;;;6.70;99.90;;;;;;5072297;28;20048;-51
2023/04/11 03:56:20;;;;;;;5.30;3.13;;;6.70;99.90;;;;;;5066647;28;20459;-51
2023/04/11 03:58:47;;;;;;;7.50;3.97;;;6.70;99.90;;;;;;5072217;28;20274;-52
2023/04/11 04:01:14;;;;;;;;;;;6.70;99.90;;;;;;5064608;28;20106;-51
2023/04/11 04:03:41;;;;;;;8.13;3.90;;;6.80;99.90;;;;;;5060618;28;19919;-51
2023/04/11 04:06:11;;;;;;;8.38;3.63;;;6.80;99.90;;;;;;5073370;28;20090;-53
2023/04/11 04:08:38;;;;;;;9.13;4.50;;;6.70;99.90;;;;;;5096086;28;20050;-50
2023/04/11 04:11:05;;;;;;;7.68;4.45;;;6.80;99.90;;;;;;5069135;28;20075;-55
2023/04/11 04:13:34;;;;;;;8.52;4.15;;;6.80;99.90;;;;;;5053882;28;20045;-49
2023/04/11 04:16:10;;;;;;;7.32;4.03;;;6.70;99.90;;;;;;5053781;28;20049;-50
2023/04/11 04:18:39;;;;;;;5.78;3.60;;;6.80;99.90;;;;;;5055119;28;20097;-51
2023/04/11 04:21:07;;;;;;;8.52;4.03;;;6.80;99.90;;;;;;5063367;28;20497;-52
2023/04/11 04:23:38;;;;;;;5.93;3.78;;;6.80;99.90;;;;;;5074421;28;20048;-49
2023/04/11 04:26:23;;;;;;;6.72;3.20;;;6.70;99.90;;;;;;5082585;28;20131;-53
2023/04/11 04:29:04;;;;;;;8.45;3.65;;;6.60;99.90;;;;;;5072626;28;20072;-53
2023/04/11 04:31:49;;;;;;;9.07;4.50;;;6.60;99.90;;;;;;5062214;28;20127;-49
2023/04/11 04:34:20;;;;;;;7.50;3.75;;;6.50;99.90;;;;;;5069477;28;20056;-52
2023/04/11 04:36:48;;;;;;;7.00;4.07;;;6.50;99.90;;;;;;5069311;28;20048;-49
2023/04/11 04:39:24;;;;;;;7.90;4.15;;;6.40;99.90;;;;;;5064966;28;20040;-54
2023/04/11 04:41:57;;;;;;;8.27;4.00;;;6.40;99.90;;;;;;5089180;28;20040;-51
2023/04/11 04:44:28;;;;;;;6.60;3.95;;;6.40;99.90;;;;;;5093490;28;20562;-52
2023/04/11 04:46:58;;;;;;;7.05;3.60;;;6.40;99.90;;;;;;5071745;28;20110;-52
2023/04/11 04:49:27;;;;;;;6.25;3.97;;;6.40;99.90;;;;;;5066488;28;20504;-49
2023/04/11 04:51:53;;;;;;;6.75;3.92;;;6.40;99.90;;;;;;5066136;28;20052;-49
2023/04/11 04:54:20;;;;;;;7.10;4.07;;;6.50;99.90;;;;;;5086279;28;20086;-49
2023/04/11 04:56:47;;;;;;;6.65;3.05;;;6.50;99.90;;;;;;5072285;28;20497;-51
2023/04/11 04:59:15;;;;;;;10.05;4.70;;;6.50;99.90;;;;;;5056591;28;20127;-51
2023/04/11 05:01:49;;;;;;;9.23;4.53;;;6.60;99.90;;;;;;5073857;28;20048;-52
2023/04/11 05:04:21;;;;;;;8.32;4.63;;;6.70;99.90;;;;;;5073159;28;20051;-49
2023/04/11 05:06:53;;;;;;;15.50;4.25;;;6.70;99.90;;;;;;5072791;28;20543;-55
2023/04/11 05:09:19;;;;;;;8.00;3.72;;;6.80;99.90;;;;;;5072195;28;20040;-52
2023/04/11 05:11:49;;;;;;;8.13;4.07;;;6.70;99.90;;;;;;5064739;28;20139;-52
2023/04/11 05:14:20;;;;;;;13.50;4.32;;;6.60;99.90;;;;;;5073049;28;20051;-50
2023/04/11 05:16:46;;;;;;;7.80;4.28;;;6.60;99.90;;;;;;5068227;28;20099;-53
2023/04/11 05:19:13;;;;;;;10.07;4.45;;;6.70;99.90;;;;;;5070249;28;20055;-54
2023/04/11 05:21:45;;;;;;;9.23;4.55;;;6.60;99.90;;;;;;5053954;28;20059;-52
2023/04/11 05:24:12;;;;;;;9.30;4.55;;;6.60;99.90;;;;;;5086929;28;20044;-49
2023/04/11 05:26:39;;;;;;;7.10;4.32;;;6.60;99.90;;;;;;5071923;28;20052;-53
2023/04/11 05:29:06;;;;;;;11.23;4.18;;;6.60;99.90;;;;;;5068147;28;20089;-50
2023/04/11 05:31:34;;;;;;;12.38;4.68;;;6.60;99.90;;;;;;5070671;28;20136;-54
2023/04/11 05:34:01;;;;;;;;;;;6.60;99.90;;;;;;5052000;28;20575;-52
2023/04/11 05:36:28;;;;;;;11.25;5.50;;;6.60;99.90;;;;;;5052816;28;19974;-52
2023/04/11 05:38:55;;;;;;;8.65;5.20;;;6.70;99.90;;;;;;5072975;28;20044;-49
2023/04/11 05:41:22;;;;;;;11.73;5.65;;;6.80;99.90;;;;;;5070300;28;20408;-52
2023/04/11 05:43:48;;;;;;;12.45;5.45;;;6.80;99.90;;;;;;5070185;28;20040;-53
2023/04/11 05:46:16;;;;;;;10.40;6.10;;;6.80;99.90;;;;;;5053450;28;20044;-49
2023/04/11 05:48:44;;;;;;;10.60;5.90;;;6.90;99.90;;;;;;5075968;28;20463;-53
2023/04/11 05:51:11;;;;;;;12.15;5.78;;;6.90;99.90;;;;;;5065828;28;20048;-53
2023/04/11 05:53:38;;;;;;;9.50;4.80;;;6.90;99.90;;;;;;5071011;28;20051;-49
2023/04/11 05:56:05;;;;;;;6.35;3.90;;;6.90;99.90;;;;;;5075056;28;20040;-52
2023/04/11 05:58:33;;;;;;;7.15;3.60;;;6.90;99.90;;;;;;5108321;28;20051;-51
2023/04/11 06:01:00;;;;;;;7.15;3.80;;;6.90;99.90;;;;;;5114089;28;20051;-51
2023/04/11 06:03:27;;;;;;;6.03;3.58;;;6.90;99.90;;;;;;5114995;28;20043;-55
2023/04/11 06:05:54;;;;;;;8.32;4.32;;;7.00;99.90;;;;;;5098823;28;20068;-49
2023/04/11 06:08:20;;;;;;;9.52;4.82;;;7.00;99.90;;;;;;5086401;28;20037;-52
2023/04/11 06:10:47;;;;;;;9.90;5.35;;;7.10;99.90;;;;;;5094454;28;20044;-51
2023/04/11 06:13:14;;;;;;;7.70;4.22;;;7.10;99.90;;;;;;5094448;28;20451;-51
2023/04/11 06:15:41;;;;;;;11.68;3.83;;;7.20;99.90;;;;;;5092739;28;20097;-50
2023/04/11 06:18:08;;;;;;;8.88;4.45;;;7.20;99.90;;;;;;5114161;28;20256;-52
2023/04/11 06:20:34;;;;;;;9.30;4.72;;;7.20;99.90;;;;;;5114078;28;20071;-53
2023/04/11 06:23:01;;;;;;;6.28;4.32;;;7.20;99.90;;;;;;5114837;28;20074;-51
2023/04/11 06:25:28;;;;;;;9.73;4.22;;;7.10;99.90;;;;;;5112510;28;20036;-51
2023/04/11 06:27:55;;;;;;;7.03;4.18;;;7.10;99.90;;;;;;5113884;28;20381;-53
2023/04/11 06:30:21;;;;;;;6.95;3.88;;;7.10;99.90;;;;;;5113775;28;20046;-49
2023/04/11 06:32:48;;;;;;;8.38;4.25;;;7.20;99.90;;;;;;5112482;28;20054;-52
2023/04/11 06:35:15;;;;;;;9.73;4.60;;;7.20;99.90;;;;;;5114134;28;20043;-52
2023/04/11 06:37:42;;;;;;;6.53;3.35;;;7.20;99.90;;;;;;5114200;28;20070;-51
2023/04/11 06:40:09;;;;;;;12.02;4.85;;;7.20;99.90;;;;;;5113756;28;20082;-52
2023/04/11 06:42:36;;;;;;;11.52;5.00;;;7.20;99.90;;;;;;5106689;28;20153;-51
2023/04/11 06:45:04;;;;;;;9.77;5.38;;;7.30;99.90;;;;;;5067471;28;20500;-48
2023/04/11 06:47:31;;;;;;;7.28;4.70;;;7.40;99.90;;;;;;5075992;28;20046;-49
2023/04/11 06:49:58;;;;;;;8.95;5.05;;;7.40;99.90;;;;;;5082884;28;20493;-49
2023/04/11 06:52:25;;;;;;;8.02;4.70;;;7.50;99.90;;;;;;5073046;28;20052;-52
2023/04/11 06:54:53;;;;;;;10.57;4.80;;;7.40;99.90;;;;;;5075960;28;20221;-51
2023/04/11 06:57:20;;;;;;;7.63;4.90;;;7.50;99.90;;;;;;5072922;28;20382;-51
2023/04/11 06:59:47;;;;;;;14.52;7.10;;;7.60;99.90;;;;;;5071440;28;20485;-49
2023/04/11 07:02:14;;;;;;;15.15;6.38;;;7.70;99.90;;;;;;5079349;28;20086;-53
2023/04/11 07:04:41;;;;;;;16.48;7.85;;;7.80;99.90;;;;;;5085087;28;20036;-51
2023/04/11 07:07:08;;;;;;;11.02;5.78;;;7.80;99.90;;;;;;5081427;28;20041;-48
2023/04/11 07:09:35;;;;;;;8.63;5.47;;;7.80;99.90;;;;;;5086857;28;20048;-49
2023/04/11 07:12:01;;;;;;;8.55;4.82;;;7.80;99.90;;;;;;5093209;28;20040;-49
2023/04/11 07:14:28;;;;;;;8.68;4.53;;;7.70;99.90;;;;;;5092738;28;20389;-51
2023/04/11 07:16:55;;;;;;;10.07;4.20;;;7.80;99.90;;;;;;5084878;28;20090;-52
2023/04/11 07:19:22;;;;;;;6.70;3.58;;;7.70;99.90;;;;;;5088105;28;20075;-51
2023/04/11 07:21:48;;;;;;;4.55;2.95;;;7.80;99.90;;;;;;5072799;28;20040;-49
2023/04/11 07:24:17;;;;;;;6.18;3.53;;;7.90;99.90;;;;;;5071936;28;20476;-50
2023/04/11 07:26:45;;;;;;;7.93;3.53;;;8.00;99.90;;;;;;5072986;28;20123;-52
2023/04/11 07:29:11;;;;;;;7.97;4.45;;;8.00;99.90;;;;;;5072461;28;20599;-51
2023/04/11 07:31:40;;;;;;;10.88;4.38;;;8.10;99.90;;;;;;5072879;28;20508;-51
2023/04/11 07:34:07;;;;;;;6.95;3.63;;;8.30;99.90;;;;;;5072003;28;20045;-50
2023/04/11 07:36:34;;;;;;;5.60;3.22;;;8.50;99.90;;;;;;5089207;28;20045;-50
2023/04/11 07:39:03;;;;;;;7.25;4.35;;;8.70;99.90;;;;;;5070956;28;20185;-49
2023/04/11 07:41:29;;;;;;;6.75;4.40;;;8.70;99.90;;;;;;5071374;28;20048;-50
2023/04/11 07:43:56;;;;;;;8.63;4.20;;;8.80;99.90;;;;;;5072389;28;20036;-50
2023/04/11 07:46:23;;;;;;;10.90;3.70;;;8.90;99.90;;;;;;5080924;28;20036;-52
2023/04/11 07:48:50;;;;;;;7.82;3.45;;;9.00;99.90;;;;;;5083615;28;20489;-53
2023/04/11 07:51:17;;;;;;;8.40;3.58;;;9.10;99.90;;;;;;5092877;28;20196;-50
2023/04/11 07:53:44;;;;;;;6.88;4.03;;;9.30;99.90;;;;;;5108777;28;20039;-49
2023/04/11 07:56:12;;;;;;;7.53;4.47;;;9.40;99.90;;;;;;5112875;28;20043;-50
2023/04/11 07:58:39;;;;;;;6.47;4.35;;;9.50;99.90;;;;;;5093031;28;20044;-49
2023/04/11 08:01:17;;;;;;;6.57;3.60;;;9.60;99.90;;;;;;5079950;28;20390;-49
2023/04/11 08:03:44;;;;;;;6.18;3.53;;;9.60;99.90;;;;;;5083563;28;20036;-50
2023/04/11 08:06:11;;;;;;;7.82;3.88;;;9.50;99.90;;;;;;5079505;28;20101;-49
2023/04/11 08:08:38;;;;;;;7.07;3.72;;;9.60;99.90;;;;;;5071339;28;20729;-54
2023/04/11 08:11:04;;;;;;;7.05;4.13;;;9.60;99.90;;;;;;5070757;28;20048;-49
2023/04/11 08:13:31;;;;;;;11.65;3.80;;;9.70;99.90;;;;;;5071484;28;20041;-50
2023/04/11 08:16:54;;;;;;;5.05;3.22;;;9.70;99.90;;;;;;5056457;22;20045;-52
2023/04/11 08:19:21;;;;;;;10.10;3.83;;;9.70;99.90;;;;;;5026311;28;20037;-52
2023/04/11 08:21:48;;;;;;;6.93;4.07;;;9.70;99.90;;;;;;5031733;28;20099;-52
2023/04/11 08:24:15;;;;;;;6.05;3.25;;;9.80;99.90;;;;;;5032236;28;20147;-52
2023/04/11 08:26:41;;;;;;;7.85;3.95;;;10.00;99.90;;;;;;5031942;28;20087;-51
2023/04/11 08:29:10;;;;;;;10.43;4.63;;;10.10;99.90;;;;;;5030936;28;20045;-50
2023/04/11 08:31:44;;;;;;;6.07;3.58;;;10.20;99.90;;;;;;5035255;28;20029;-52
2023/04/11 08:34:11;;;;;;;5.15;3.30;;;10.00;99.90;;;;;;5049675;28;20448;-52
2023/04/11 08:36:38;;;;;;;6.53;3.38;;;9.80;99.90;;;;;;5036815;28;20107;-51
2023/04/11 08:39:05;;;;;;;8.30;3.60;;;9.90;99.90;;;;;;5030922;28;20111;-51
2023/04/11 08:41:34;;;;;;;6.32;3.85;;;9.70;99.90;;;;;;5031670;28;20045;-51
2023/04/11 08:44:01;;;;;;;7.72;3.90;;;9.50;99.90;;;;;;5043961;28;20379;-51
2023/04/11 08:46:29;;;;;;;4.38;3.05;;;9.60;99.90;;;;;;5031490;28;20498;-54
2023/04/11 08:48:56;;;;;;;5.35;3.53;;;9.60;99.90;;;;;;5030903;28;20509;-51
2023/04/11 08:51:25;;;;;;;11.35;3.70;;;9.60;99.90;;;;;;5035861;28;20057;-50
2023/04/11 08:53:56;;;;;;;7.80;4.10;;;9.60;99.90;;;;;;5037932;28;20052;-51
2023/04/11 08:56:23;;;;;;;7.13;4.45;;;9.50;99.90;;;;;;5030982;28;20051;-54
2023/04/11 08:58:50;;;;;;;9.10;4.57;;;9.40;99.90;;;;;;5030839;28;20387;-53
2023/04/11 09:01:23;;;;;;;9.18;4.85;;;9.30;99.90;;;;;;5055048;28;20033;-51
2023/04/11 09:03:51;;;;;;;9.77;5.15;;;9.20;99.90;;;;;;5047419;28;20083;-51
2023/04/11 09:06:17;;;;;;;;;;;9.20;99.90;;;;;;5048852;28;20029;-52
2023/04/11 09:08:44;;;;;;;6.47;4.47;;;9.30;99.90;;;;;;5030909;28;20016;-51
2023/04/11 09:11:11;;;;;;;8.52;4.93;;;9.20;99.90;;;;;;5030084;28;20050;-53
2023/04/11 09:13:38;;;;;;;7.75;4.47;;;9.20;99.90;;;;;;5031341;28;20422;-51
2023/04/11 09:16:06;;;;;;;7.95;4.30;;;9.30;99.90;;;;;;5040474;28;20560;-51
2023/04/11 09:18:35;;;;;;;5.95;4.47;;;9.40;99.90;;;;;;5042036;28;20045;-52
2023/04/11 09:21:04;;;;;;;7.85;4.70;;;9.60;99.90;;;;;;5040610;28;20046;-52
2023/04/11 09:23:31;;;;;;;8.93;4.38;;;9.70;99.90;;;;;;5035308;28;20099;-51
2023/04/11 09:25:58;;;;;;;8.43;3.95;;;9.70;99.90;;;;;;5035128;28;20041;-52
2023/04/11 09:28:25;;;;;;;6.75;4.05;;;9.80;99.90;;;;;;5036366;28;20041;-51
2023/04/11 09:30:53;;;;;;;9.40;6.07;;;9.70;99.90;;;;;;5046768;28;20076;-51
2023/04/11 09:33:27;;;;;;;9.10;4.57;;;9.60;99.90;;;;;;5035266;28;20068;-51
2023/04/11 09:35:55;;;;;;;7.47;4.85;;;9.50;99.90;;;;;;5049003;28;20090;-51
2023/04/11 09:38:33;;;;;;;11.55;5.30;;;9.50;99.90;;;;;;5034669;28;20456;-51
2023/04/11 09:41:01;;;;;;;;;;;9.40;99.90;;;;;;5033762;28;20523;-53
2023/04/11 09:43:50;;;;;;;7.65;4.72;;;9.40;99.90;;;;;;5035390;28;19921;-51
2023/04/11 09:46:19;;;;;;;10.02;4.70;;;9.30;99.90;;;;;;5049982;28;20033;-52
2023/04/11 09:48:47;;;;;;;10.65;4.47;;;9.30;99.90;;;;;;5034413;28;20049;-52
2023/04/11 09:51:15;;;;;;;9.93;4.93;;;9.30;99.90;;;;;;5034685;28;20083;-52
2023/04/11 09:54:01;;;;;;;11.77;5.07;;;9.30;99.90;;;;;;5049047;28;20058;-53
2023/04/11 09:56:29;;;;;;;10.98;4.93;;;9.20;99.90;;;;;;5039577;28;20040;-52
2023/04/11 09:58:57;;;;;;;12.75;5.30;;;9.10;99.90;;;;;;5052175;28;20141;-51
2023/04/11 10:01:24;;;;;;;7.38;4.88;;;9.00;99.90;;;;;;5034325;28;20041;-51
2023/04/11 10:03:51;;;;;;;8.85;5.00;;;9.00;99.90;;;;;;5033432;28;20505;-52
2023/04/11 10:06:32;;;;;;;9.10;4.78;;;9.00;99.90;;;;;;5041642;28;20033;-51
2023/04/11 10:09:10;;;;;;;11.48;5.60;;;9.00;99.90;;;;;;5033038;28;20518;-52
2023/04/11 10:11:44;;;;;;;8.93;5.78;;;8.90;99.90;;;;;;5033655;28;20103;-52
2023/04/11 10:14:36;;;;;;;11.73;5.45;;;8.80;99.90;;;;;;5043683;28;20057;-51
2023/04/11 10:17:19;;;;;;;10.35;5.70;;;8.70;99.90;;;;;;5038056;28;20037;-50
2023/04/11 10:19:54;;;;;;;4.57;2.22;;;8.80;99.90;;;;;;5033077;28;20050;-52
2023/04/11 10:22:40;;;;;;;3.03;1.90;;;9.00;99.90;;;;;;5034234;28;20128;-50
2023/04/11 10:25:19;;;;;;;13.23;4.90;;;9.10;99.90;;;;;;5041638;28;20038;-51
2023/04/11 10:27:48;;;;;;;6.03;3.33;;;9.10;99.90;;;;;;5049710;28;20524;-51
2023/04/11 10:30:15;;;;;;;2.88;1.27;;;9.10;99.90;;;;;;5053494;28;20033;-51
2023/04/11 10:33:08;;;;;;;0.60;0.60;;;9.10;99.90;;;;;;5053419;28;20129;-52
2023/04/11 10:35:54;;;;;;;2.45;0.55;;;9.20;99.90;;;;;;5033567;28;20103;-52
2023/04/11 10:38:36;;;;;;;0.82;0.40;;;9.30;99.90;;;;;;5033788;28;20140;-51
2023/04/11 10:41:13;;;;;;;2.95;0.30;;;9.40;99.90;;;;;;5032782;28;20041;-51
2023/04/11 10:43:40;;;;;;;0.63;0.40;;;9.50;99.90;;;;;;5048251;28;20563;-51
2023/04/11 10:46:42;;;;;;;2.78;0.20;;;9.50;99.90;;;;;;5053496;28;20098;-51
2023/04/11 10:49:09;;;;;;;0.70;0.30;;;9.40;99.90;;;;;;5044268;28;20386;-50
2023/04/11 10:51:35;;;;;;;0.75;0.30;;;9.50;99.90;;;;;;5052508;28;20072;-50
2023/04/11 10:54:02;;;;;;;0.75;0.22;;;9.40;99.90;;;;;;5053644;28;20040;-51
2023/04/11 10:56:41;;;;;;;0.35;0.17;;;9.40;99.90;;;;;;5052874;28;20040;-52
2023/04/11 10:59:30;;;;;;;0.75;0.25;;;9.40;99.90;;;;;;5044814;28;20057;-51
2023/04/11 11:02:01;;;;;;;0.10;0.10;;;9.50;99.90;;;;;;5068894;28;20099;-51
2023/04/11 11:04:35;;;;;;;0.30;0.10;;;9.50;99.90;;;;;;5042541;28;20037;-51
2023/04/11 11:07:05;;;;;;;0.60;0.20;;;9.60;99.90;;;;;;5032989;28;20034;-52
2023/04/11 11:09:33;;;;;;;1.08;0.20;;;9.60;99.90;;;;;;5032816;28;20051;-54
2023/04/11 11:12:11;;;;;;;2.05;0.22;;;9.50;99.90;;;;;;5045972;28;20044;-53
2023/04/11 11:14:38;;;;;;;;;;;9.40;99.90;;;;;;5033162;28;20049;-50
2023/04/11 11:17:06;;;;;;;0.13;0.10;;;9.30;99.90;;;;;;5032170;28;19967;-53
2023/04/11 11:19:34;;;;;;;0.90;0.13;;;9.30;99.90;;;;;;5039769;28;20497;-52
2023/04/11 11:22:05;;;;;;;1.88;0.20;;;9.20;99.90;;;;;;5035046;28;20076;-50
2023/04/11 11:24:32;;;;;;;1.55;0.15;;;9.10;99.90;;;;;;5032135;28;20045;-50
2023/04/11 11:26:58;;;;;;;0.20;0.10;;;9.00;99.90;;;;;;5032815;28;20048;-51
2023/04/11 11:29:30;;;;;;;0.28;0.20;;;8.90;99.90;;;;;;5038802;28;20095;-50
2023/04/11 11:31:58;;;;;;;0.15;0.10;;;8.70;99.90;;;;;;5032718;28;20069;-51
2023/04/11 11:34:33;;;;;;;0.45;0.22;;;8.50;99.90;;;;;;5032859;28;20494;-51
2023/04/11 11:37:05;;;;;;;0.60;0.20;;;8.20;99.90;;;;;;5032806;28;20080;-50
2023/04/11 11:39:33;;;;;;;0.73;0.35;;;8.10;99.90;;;;;;5036030;28;20041;-50
2023/04/11 11:42:00;;;;;;;3.03;0.20;;;8.00;99.90;;;;;;5032126;28;20077;-50
2023/04/11 11:44:28;;;;;;;;;;;8.00;99.90;;;;;;5033964;28;20478;-51
2023/04/11 11:47:04;;;;;;;0.63;0.30;;;7.90;99.90;;;;;;5032271;28;19932;-51
2023/04/11 11:49:48;;;;;;;0.67;0.27;;;8.00;99.90;;;;;;5031948;28;20050;-52
2023/04/11 11:52:42;;;;;;;1.10;0.60;;;8.00;99.90;;;;;;5033034;28;20048;-51
2023/04/11 11:55:18;;;;;;;0.35;0.20;;;8.00;99.90;;;;;;5030532;28;20057;-51
2023/04/11 11:57:46;;;;;;;1.08;0.40;;;8.00;99.90;;;;;;5038159;28;20050;-51
2023/04/11 12:00:13;;;;;;;0.75;0.30;;;8.10;99.90;;;;;;5032967;28;20505;-51
2023/04/11 12:02:43;;;;;;;1.20;0.25;;;8.20;99.90;;;;;;5031260;28;20125;-51
2023/04/11 12:05:11;;;;;;;0.77;0.30;;;8.30;99.90;;;;;;5032324;28;20500;-52
2023/04/11 12:07:39;;;;;;;3.33;0.40;;;8.40;99.90;;;;;;5041699;28;20119;-53
2023/04/11 12:10:10;;;;;;;0.93;0.40;;;8.30;99.90;;;;;;5043406;28;20421;-51
2023/04/11 12:12:39;;;;;;;0.30;0.25;;;8.30;99.90;;;;;;5052330;28;20049;-52
2023/04/11 12:15:17;;;;;;;0.52;0.30;;;8.50;99.90;;;;;;5045176;28;20041;-51
2023/04/11 12:17:51;;;;;;;;;;;8.70;99.90;;;;;;5032088;28;20528;-52
2023/04/11 12:20:26;;;;;;;1.48;0.40;;;8.90;99.90;;;;;;5031627;28;20066;-53
2023/04/11 12:22:53;;;;;;;1.02;0.17;;;9.10;99.90;;;;;;5033235;28;20069;-50
2023/04/11 12:25:21;;;;;;;0.80;0.38;;;9.10;99.90;;;;;;5031854;28;20052;-52
2023/04/11 12:27:48;;;;;;;2.42;0.40;;;9.30;99.90;;;;;;5031730;28;20053;-51
2023/04/11 12:30:14;;;;;;;1.90;0.40;;;9.40;99.90;;;;;;5031542;28;20229;-53
2023/04/11 12:32:42;;;;;;;1.02;0.40;;;9.50;99.90;;;;;;5032814;28;20045;-52
2023/04/11 12:35:10;;;;;;;1.15;0.40;;;9.70;99.90;;;;;;5031639;28;20513;-51
2023/04/11 12:37:37;;;;;;;2.38;0.57;;;9.70;99.90;;;;;;5031662;28;20445;-51
2023/04/11 12:40:11;;;;;;;1.75;0.50;;;9.70;99.90;;;;;;5031805;28;20111;-51
2023/04/11 12:42:40;;;;;;;0.60;0.50;;;9.70;99.90;;;;;;5043766;28;20148;-51
2023/04/11 12:45:22;;;;;;;0.77;0.55;;;9.80;99.90;;;;;;5032053;28;20400;-51
2023/04/11 12:47:49;;;;;;;;;;;9.80;99.90;;;;;;5034220;28;20038;-53
2023/04/11 12:50:17;;;;;;;1.23;0.47;;;9.80;99.90;;;;;;5031065;28;19921;-50
2023/04/11 12:52:44;;;;;;;0.95;0.50;;;9.70;99.90;;;;;;5044904;28;20098;-50
2023/04/11 12:55:11;;;;;;;1.60;0.73;;;9.70;99.90;;;;;;5040289;28;20133;-52
2023/04/11 12:57:38;;;;;;;;;;;9.80;99.90;;;;;;5030386;28;20045;-51
2023/04/11 13:00:06;;;;;;;3.08;0.60;;;9.80;99.90;;;;;;5030970;28;19979;-52
2023/04/11 13:02:34;;;;;;;3.97;0.73;;;9.80;99.90;;;;;;5043889;28;20036;-51
2023/04/11 13:05:12;;;;;;;0.60;0.43;;;9.90;99.90;;;;;;5042963;28;20044;-53
2023/04/11 13:07:40;;;;;;;2.33;0.77;;;9.90;99.90;;;;;;5051264;28;20053;-52
2023/04/11 13:10:07;;;;;;;;;;;9.80;99.90;;;;;;5031108;28;20491;-52